Woodville, Mississippi
Current Conditions -  °F | °C
As of 2:35 PM on Friday 19 Dec 2014 (Local Time) from KHZR Reporting Station
Moderate Rain Moderate Rain  
Wind Chill: 50°   Ceiling: 2800
Heat Index: 50°   Visibility: 5mi
Dew Point: 49°   Wind: 9mph
Humidity: 95%   Direction: 50°NE
Pressure: 30.06"   Gusts: NA
Location:  31.1°N, 91.3°W
Report Text: KHZR 192035Z AUTO 05008KT 5SM RA SCT006 OVC028 10/09 A3006 RMK AO2 P0008 T01000093
Loading
Personal Weather Stations






























Interactive Weather Map New forecast layout! Learn more

10-Day Weather Forecast

Advertisements
Track Severe Weather on mobile